Bostwick, Florida
Current Conditions -  °F | °C
As of 1:58 AM on Thursday 23 Oct 2014 (Local Time) from KSGJ Reporting Station
Clear Clear  
Wind Chill: 58°   Ceiling: Unl
Heat Index: 58°   Visibility: 10mi
Dew Point: 52°   Wind: 7mph
Humidity: 81%   Direction: 320°NW
Pressure: 30.03"   Gusts: NA
Location:  29.77°N, 81.64°W
Report Text: KSGJ 230558Z AUTO 32006KT 10SM CLR 14/11 A3003 RMK AO2 SLP169 T01440111 10200 20144 56011
Loading
Personal Weather Stations






























Interactive Weather Map
Tropical Storm Tracking
New forecast layout! Learn more

10-Day Weather Forecast

Advertisements
Track Severe Weather on mobile